Time;durP1;ratioP1;P1;durP2;ratioP2;P2;SDS_P1;SDS_P2;PMS_P1;PMS_P2;Temp;Humidity;BMP_temperature;BMP_pressure;BME280_temperature;BME280_humidity;BME280_pressure;Samples;Min_cycle;Max_cycle;Signal;HPM_P1;HPM_P2
2023/05/24 00:00:17;;;;;;;12.55;7.80;;;;;;;15.97;73.97;99103.63;5033526;28;20098;-86
2023/05/24 00:02:42;;;;;;;14.32;7.32;;;;;;;16.12;73.35;99122.38;5033466;28;20032;-86
2023/05/24 00:05:09;;;;;;;8.20;7.05;;;;;;;16.22;73.10;99126.53;5032583;28;20029;-86
2023/05/24 00:07:36;;;;;;;11.65;6.50;;;;;;;16.32;72.48;99122.25;5033482;28;20052;-86
2023/05/24 00:10:05;;;;;;;11.98;7.03;;;;;;;16.32;72.17;99119.41;5028790;28;20021;-86
2023/05/24 00:12:31;;;;;;;9.88;7.40;;;;;;;16.32;72.46;99125.06;5028132;28;20166;-86
2023/05/24 00:14:57;;;;;;;10.85;6.93;;;;;;;16.36;71.69;99113.81;5023788;28;20111;-87
2023/05/24 00:17:23;;;;;;;7.53;6.53;;;;;;;16.35;71.55;99113.00;5013720;28;20026;-87
2023/05/24 00:19:49;;;;;;;10.00;7.28;;;;;;;16.37;71.43;99119.06;5049860;28;20072;-87
2023/05/24 00:22:14;;;;;;;11.02;6.93;;;;;;;16.51;71.14;99117.63;5045454;28;20029;-87
2023/05/24 00:24:40;;;;;;;12.50;6.82;;;;;;;16.56;70.68;99118.09;5036718;28;20075;-87
2023/05/24 00:27:06;;;;;;;10.85;7.38;;;;;;;16.35;70.61;99096.06;5031271;28;20123;-87
2023/05/24 00:29:32;;;;;;;9.23;6.85;;;;;;;16.52;70.48;99105.97;5033196;28;20107;-87
2023/05/24 00:31:57;;;;;;;10.35;7.88;;;;;;;16.60;70.54;99111.72;5017489;28;20108;-87
2023/05/24 00:34:23;;;;;;;11.05;7.53;;;;;;;16.68;70.22;99114.22;5033266;28;20071;-87
2023/05/24 00:36:49;;;;;;;17.92;7.88;;;;;;;16.78;69.87;99117.56;5026789;28;20036;-87
2023/05/24 00:39:14;;;;;;;9.43;7.47;;;;;;;16.84;69.32;99107.53;5019891;28;20915;-86
2023/05/24 00:41:40;;;;;;;11.02;7.45;;;;;;;16.83;69.55;99111.56;5037855;28;20115;-87
2023/05/24 00:44:05;;;;;;;13.82;7.72;;;;;;;16.11;71.18;99103.03;5041125;28;20021;-87
2023/05/24 00:46:32;;;;;;;10.48;7.65;;;;;;;16.19;71.49;99106.75;5044666;28;20035;-86
2023/05/24 00:48:59;;;;;;;10.02;8.27;;;;;;;15.89;72.89;99108.31;5044705;28;20469;-86
2023/05/24 00:51:29;;;;;;;13.75;7.50;;;;;;;15.77;73.38;99108.53;5036965;28;20021;-87
2023/05/24 00:53:54;;;;;;;14.45;7.28;;;;;;;15.63;73.72;99106.28;5036696;28;20056;-87
2023/05/24 00:56:20;;;;;;;9.85;7.53;;;;;;;15.57;73.50;99097.34;5054351;28;20053;-87
2023/05/24 00:58:46;;;;;;;11.85;7.97;;;;;;;15.67;73.08;99105.16;5044510;28;20073;-87
2023/05/24 01:01:13;;;;;;;11.23;7.28;;;;;;;15.31;74.58;99101.75;5048629;28;20071;-87
2023/05/24 01:03:38;;;;;;;11.75;7.90;;;;;;;15.29;74.11;99092.88;5058043;28;20040;-87
2023/05/24 01:06:06;;;;;;;18.77;7.95;;;;;;;15.42;73.97;99113.19;5056640;28;20029;-86
2023/05/24 01:08:37;;;;;;;14.88;7.85;;;;;;;15.43;74.48;99103.56;5043162;28;20032;-87
2023/05/24 01:11:12;;;;;;;12.43;8.35;;;;;;;15.64;73.86;99099.47;5057011;28;20033;-87
2023/05/24 01:14:01;;;;;;;15.80;8.90;;;;;;;15.80;73.08;99110.59;5044915;28;20493;-87
2023/05/24 01:16:50;;;;;;;14.68;7.88;;;;;;;15.78;73.04;99099.69;5059550;28;20117;-88
2023/05/24 01:19:33;;;;;;;10.48;7.95;;;;;;;15.83;72.87;99107.81;5047541;28;20029;-87
2023/05/24 01:22:37;;;;;;;20.08;7.75;;;;;;;15.13;74.19;99105.06;5026800;28;20037;-86
2023/05/24 01:25:11;;;;;;;13.88;9.10;;;;;;;13.85;80.77;99098.03;5009166;28;20128;-86
2023/05/24 01:27:37;;;;;;;12.55;8.02;;;;;;;14.49;78.52;99101.81;5035940;28;20040;-86
2023/05/24 01:30:03;;;;;;;13.15;8.75;;;;;;;14.73;77.08;99095.06;5023184;28;20041;-86
2023/05/24 01:32:30;;;;;;;33.20;8.93;;;;;;;13.97;80.93;99096.28;5033958;28;20061;-87
2023/05/24 01:34:55;;;;;;;14.65;7.63;;;;;;;13.78;82.42;99086.66;5022109;28;20033;-87
2023/05/24 01:37:21;;;;;;;11.48;8.85;;;;;;;13.35;85.65;99077.97;5042621;28;20036;-86
2023/05/24 01:39:47;;;;;;;11.50;9.25;;;;;;;13.60;85.83;99092.66;5030235;28;20039;-86
2023/05/24 01:42:19;;;;;;;20.33;8.55;;;;;;;13.79;83.79;99102.31;5036116;28;20029;-87
2023/05/24 01:45:15;;;;;;;11.65;9.32;;;;;;;13.30;87.40;99103.50;5043716;28;20380;-86
2023/05/24 01:48:17;;;;;;;13.25;8.80;;;;;;;13.53;86.68;99111.31;5020488;28;20512;-87
2023/05/24 01:50:56;;;;;;;18.23;8.90;;;;;;;13.67;85.78;99097.63;5053696;28;20493;-86
2023/05/24 01:53:25;;;;;;;11.40;8.60;;;;;;;13.70;84.99;99104.50;5040172;28;20057;-87
2023/05/24 01:55:55;;;;;;;12.77;8.82;;;;;;;13.13;87.11;99091.47;5015046;28;20442;-87
2023/05/24 01:58:21;;;;;;;;;;;;;;;12.87;89.43;99104.03;5030990;28;20056;-87
2023/05/24 02:00:48;;;;;;;16.38;8.77;;;;;;;12.67;90.88;99103.09;5036137;28;19982;-86
2023/05/24 02:03:14;;;;;;;14.52;8.68;;;;;;;12.18;92.98;99076.84;5035546;28;20553;-86
2023/05/24 02:05:40;;;;;;;17.02;9.50;;;;;;;12.40;93.24;99093.50;5053510;28;20025;-86
2023/05/24 02:08:06;;;;;;;15.48;9.45;;;;;;;12.67;91.25;99102.25;5035608;28;20425;-86
2023/05/24 02:10:31;;;;;;;14.15;8.38;;;;;;;12.52;92.28;99103.84;5032400;28;20028;-87
2023/05/24 02:12:58;;;;;;;18.65;9.43;;;;;;;12.61;90.82;99096.09;5034969;28;20040;-87
2023/05/24 02:15:24;;;;;;;16.63;9.00;;;;;;;12.29;93.32;99095.97;5031561;28;20025;-87
2023/05/24 02:17:53;;;;;;;16.77;9.35;;;;;;;12.44;92.05;99089.63;5033841;28;20028;-87
2023/05/24 02:20:21;;;;;;;10.45;8.48;;;;;;;12.22;92.85;99102.19;5053183;28;20016;-86
2023/05/24 02:22:47;;;;;;;12.80;9.77;;;;;;;12.36;92.98;99113.81;5035318;28;20025;-87
2023/05/24 02:25:13;;;;;;;14.50;9.27;;;;;;;12.30;93.21;99112.47;5034931;28;20033;-86
2023/05/24 02:27:38;;;;;;;12.45;8.68;;;;;;;12.18;93.51;99112.50;5046927;28;20033;-87
2023/05/24 02:30:05;;;;;;;11.60;8.52;;;;;;;12.41;92.96;99121.19;5035252;28;20497;-87
2023/05/24 02:32:31;;;;;;;16.05;9.77;;;;;;;12.50;90.33;99118.25;5034140;28;20036;-87
2023/05/24 02:34:58;;;;;;;14.38;9.40;;;;;;;12.30;91.80;99120.03;5023497;28;20430;-87
2023/05/24 02:37:24;;;;;;;12.60;9.15;;;;;;;12.27;92.39;99113.19;5028874;28;20029;-86
2023/05/24 02:39:50;;;;;;;21.15;9.50;;;;;;;12.42;91.37;99116.41;5034733;28;20033;-87
2023/05/24 02:42:15;;;;;;;18.80;8.93;;;;;;;12.71;89.71;99120.84;5022424;28;20041;-86
2023/05/24 02:44:41;;;;;;;10.88;8.85;;;;;;;12.81;88.36;99129.91;5045457;28;20505;-86
2023/05/24 02:47:07;;;;;;;19.92;10.65;;;;;;;13.05;87.41;99126.97;5038671;28;20032;-86
2023/05/24 02:49:32;;;;;;;12.50;8.63;;;;;;;13.09;86.37;99127.03;5033570;28;20040;-87
2023/05/24 02:51:58;;;;;;;16.85;9.73;;;;;;;13.25;85.57;99131.88;5036552;28;20091;-87
2023/05/24 02:54:24;;;;;;;17.73;9.43;;;;;;;13.33;84.95;99123.28;5015015;28;20037;-87
2023/05/24 02:56:50;;;;;;;21.30;9.50;;;;;;;13.42;84.38;99120.28;5014996;28;20053;-86
2023/05/24 02:59:16;;;;;;;12.55;9.05;;;;;;;13.41;84.44;99117.84;5031831;28;20547;-87
2023/05/24 03:01:41;;;;;;;16.83;10.10;;;;;;;13.54;84.36;99119.41;5024981;28;20123;-87
2023/05/24 03:04:07;;;;;;;13.63;8.27;;;;;;;13.60;83.93;99126.38;5033388;28;20032;-86
2023/05/24 03:06:32;;;;;;;14.32;8.18;;;;;;;13.67;82.97;99119.31;5034585;28;20432;-87
2023/05/24 03:08:58;;;;;;;13.75;9.43;;;;;;;13.73;83.28;99115.00;5029086;28;20040;-87
2023/05/24 03:11:23;;;;;;;14.52;8.20;;;;;;;13.88;82.82;99131.06;5044065;28;20104;-87
2023/05/24 03:13:49;;;;;;;10.02;8.52;;;;;;;14.03;82.67;99128.56;5048587;28;20029;-86
2023/05/24 03:16:15;;;;;;;14.32;8.95;;;;;;;14.04;82.07;99116.13;5034379;28;20044;-87
2023/05/24 03:18:41;;;;;;;15.20;9.10;;;;;;;14.16;81.70;99118.81;5034261;28;20029;-86
2023/05/24 03:21:06;;;;;;;18.15;8.85;;;;;;;14.27;80.56;99113.41;5033427;28;20191;-86
2023/05/24 03:23:32;;;;;;;10.90;8.05;;;;;;;14.40;79.69;99116.91;5044142;28;20056;-87
2023/05/24 03:25:57;;;;;;;17.20;8.80;;;;;;;14.37;79.31;99112.03;5050810;28;20097;-86
2023/05/24 03:28:23;;;;;;;13.40;8.65;;;;;;;14.48;79.02;99117.03;5039180;28;20037;-87
2023/05/24 03:30:48;;;;;;;12.82;8.60;;;;;;;14.67;78.70;99124.69;5034089;28;20032;-87
2023/05/24 03:33:14;;;;;;;11.38;8.88;;;;;;;14.68;77.76;99115.06;5051677;28;20029;-87
2023/05/24 03:35:39;;;;;;;15.05;9.20;;;;;;;14.71;77.64;99111.50;5034003;28;20604;-87
2023/05/24 03:38:05;;;;;;;18.35;8.80;;;;;;;14.78;77.61;99131.38;5032180;28;20260;-87
2023/05/24 03:40:32;;;;;;;12.70;9.13;;;;;;;14.54;77.97;99133.28;5028535;28;20031;-87
2023/05/24 03:42:58;;;;;;;17.38;8.80;;;;;;;14.81;77.50;99132.63;5028175;28;20485;-87
2023/05/24 03:45:23;;;;;;;12.27;8.93;;;;;;;14.36;78.25;99127.28;5029483;28;20067;-87
2023/05/24 03:47:49;;;;;;;13.93;7.85;;;;;;;14.69;77.70;99134.38;5048215;28;20056;-86
2023/05/24 03:50:14;;;;;;;12.00;9.25;;;;;;;14.82;77.96;99123.00;5033670;28;20097;-87
2023/05/24 03:52:41;;;;;;;22.83;9.32;;;;;;;14.81;77.11;99110.94;5049804;28;20052;-86
2023/05/24 03:55:07;;;;;;;15.00;8.52;;;;;;;14.76;77.40;99138.56;5033470;28;20024;-86
2023/05/24 03:57:33;;;;;;;13.52;7.90;;;;;;;14.46;76.42;99125.88;5031409;28;20471;-86
2023/05/24 03:59:59;;;;;;;24.70;8.60;;;;;;;14.74;75.23;99136.13;5025970;28;20456;-87
2023/05/24 04:02:25;;;;;;;15.75;8.55;;;;;;;14.90;75.05;99147.28;5031578;28;20029;-86
2023/05/24 04:04:51;;;;;;;14.05;7.57;;;;;;;14.92;74.89;99133.66;5017577;28;20463;-87
2023/05/24 04:07:16;;;;;;;16.83;7.95;;;;;;;14.81;75.50;99141.91;5033561;28;20472;-86
2023/05/24 04:09:42;;;;;;;15.27;6.90;;;;;;;15.15;74.94;99141.31;5031760;28;20487;-87
2023/05/24 04:12:07;;;;;;;9.82;6.13;;;;;;;15.42;73.92;99132.94;5049602;28;20087;-87
2023/05/24 04:14:34;;;;;;;9.85;5.72;;;;;;;15.63;71.27;99142.94;5032987;28;20033;-86
2023/05/24 04:17:03;;;;;;;19.10;8.50;;;;;;;15.57;76.92;99145.25;5050977;28;20489;-86
2023/05/24 04:19:28;;;;;;;50.42;11.10;;;;;;;15.43;80.81;99137.38;5033320;28;20025;-86
2023/05/24 04:21:54;;;;;;;11.30;7.78;;;;;;;15.69;79.80;99150.69;5033336;28;20035;-85
2023/05/24 04:24:19;;;;;;;16.10;8.23;;;;;;;15.84;78.39;99154.56;5032968;28;20025;-86
2023/05/24 04:26:46;;;;;;;13.73;8.27;;;;;;;15.85;78.09;99158.19;5029322;28;20115;-86
2023/05/24 04:29:12;;;;;;;11.82;7.53;;;;;;;16.10;77.36;99167.06;5026313;28;20036;-85
2023/05/24 04:31:42;;;;;;;8.35;7.43;;;;;;;15.92;77.59;99161.16;5029287;28;20025;-86
2023/05/24 04:34:08;;;;;;;11.05;7.80;;;;;;;15.70;78.65;99162.81;5010815;28;20025;-86
2023/05/24 04:36:34;;;;;;;10.57;7.43;;;;;;;16.00;78.32;99164.91;5017642;28;20032;-86
2023/05/24 04:39:03;;;;;;;11.55;8.27;;;;;;;15.92;79.23;99163.97;5042502;28;20028;-86
2023/05/24 04:41:30;;;;;;;13.55;7.70;;;;;;;16.12;77.84;99167.50;5046658;28;20482;-86
2023/05/24 04:43:58;;;;;;;13.70;7.50;;;;;;;16.08;77.81;99155.38;5035510;28;20037;-86
2023/05/24 04:46:25;;;;;;;11.13;8.43;;;;;;;16.25;77.12;99167.28;5023813;28;20033;-86
2023/05/24 04:48:51;;;;;;;11.05;7.88;;;;;;;16.03;77.57;99158.50;5026591;28;20033;-85
2023/05/24 04:51:16;;;;;;;12.68;7.60;;;;;;;16.45;76.89;99162.31;5032462;28;20032;-86
2023/05/24 04:53:42;;;;;;;9.57;7.00;;;;;;;16.51;76.32;99159.97;5030246;28;20559;-85
2023/05/24 04:56:08;;;;;;;13.05;7.50;;;;;;;16.41;77.25;99167.94;5014407;28;20129;-86
2023/05/24 04:58:33;;;;;;;9.07;7.20;;;;;;;16.42;75.88;99169.56;5028798;28;20127;-85
2023/05/24 05:01:00;;;;;;;12.85;7.50;;;;;;;16.42;76.55;99169.56;5043689;28;20421;-85
2023/05/24 05:03:26;;;;;;;11.85;8.02;;;;;;;16.53;75.46;99174.50;5025215;28;20121;-85
2023/05/24 05:05:52;;;;;;;9.95;7.43;;;;;;;16.06;77.42;99174.69;5043348;28;20127;-85
2023/05/24 05:08:19;;;;;;;9.77;8.23;;;;;;;15.75;79.47;99153.19;5046013;28;20029;-85
2023/05/24 05:10:45;;;;;;;15.43;8.55;;;;;;;16.29;77.48;99173.81;5030165;28;20508;-85
2023/05/24 05:13:10;;;;;;;10.20;7.50;;;;;;;16.64;76.07;99175.47;5031191;28;20081;-86
2023/05/24 05:15:36;;;;;;;14.15;7.18;;;;;;;16.65;74.12;99160.19;5031822;28;20031;-85
2023/05/24 05:18:01;;;;;;;13.98;7.95;;;;;;;16.29;77.14;99179.44;5030305;28;20029;-86
2023/05/24 05:20:27;;;;;;;13.98;7.40;;;;;;;16.22;76.63;99180.13;5021800;28;20057;-86
2023/05/24 05:22:52;;;;;;;8.35;7.47;;;;;;;16.16;76.88;99175.19;5013688;28;20034;-85
2023/05/24 05:25:18;;;;;;;11.05;8.10;;;;;;;16.11;77.93;99154.59;5029663;28;20501;-85
2023/05/24 05:27:43;;;;;;;18.27;9.20;;;;;;;16.50;77.70;99166.81;5021013;28;20482;-85
2023/05/24 05:30:09;;;;;;;8.73;7.82;;;;;;;16.14;78.83;99165.13;5053546;28;20033;-85
2023/05/24 05:32:35;;;;;;;12.82;7.72;;;;;;;16.36;76.93;99173.09;5027058;28;20033;-85
2023/05/24 05:35:00;;;;;;;12.40;8.00;;;;;;;16.30;76.53;99172.63;5035079;28;20028;-85
2023/05/24 05:37:25;;;;;;;12.30;8.63;;;;;;;16.74;76.22;99176.81;5025019;28;20188;-86
2023/05/24 05:39:51;;;;;;;10.18;8.35;;;;;;;16.80;75.77;99163.16;5033963;28;20452;-86
2023/05/24 05:42:16;;;;;;;15.20;8.15;;;;;;;16.47;74.91;99159.13;5039538;28;20158;-85
2023/05/24 05:44:42;;;;;;;11.50;8.32;;;;;;;16.63;76.88;99161.75;5032523;28;20032;-86
2023/05/24 05:47:08;;;;;;;20.33;8.73;;;;;;;16.51;76.75;99172.09;5016380;28;20063;-86
2023/05/24 05:49:36;;;;;;;14.63;8.90;;;;;;;16.78;77.17;99163.53;5031424;28;20025;-86
2023/05/24 05:52:04;;;;;;;11.75;9.45;;;;;;;16.87;75.38;99171.72;5022071;28;20047;-86
2023/05/24 05:54:30;;;;;;;20.73;8.05;;;;;;;17.15;73.16;99170.47;5037032;28;20112;-86
2023/05/24 05:56:55;;;;;;;18.30;8.77;;;;;;;16.87;73.27;99170.91;5025768;28;20041;-86
2023/05/24 05:59:21;;;;;;;15.40;8.95;;;;;;;16.84;74.67;99172.50;5028975;28;20032;-86
2023/05/24 06:01:47;;;;;;;19.58;9.20;;;;;;;16.94;74.76;99168.97;5020700;28;20044;-85
2023/05/24 06:04:14;;;;;;;14.80;9.00;;;;;;;17.53;75.53;99193.84;5030401;28;20519;-86
2023/05/24 06:06:40;;;;;;;17.08;8.88;;;;;;;17.94;75.07;99193.00;5027845;28;20021;-86
2023/05/24 06:09:06;;;;;;;19.42;8.25;;;;;;;17.73;75.00;99187.16;5028147;28;20456;-87
2023/05/24 06:11:31;;;;;;;14.75;8.55;;;;;;;17.72;74.05;99169.34;5034172;28;20014;-86
2023/05/24 06:13:57;;;;;;;13.07;8.68;;;;;;;17.85;73.75;99192.50;5034502;28;20028;-86
2023/05/24 06:16:22;;;;;;;17.63;7.80;;;;;;;18.23;73.08;99192.44;5024903;28;20033;-86
2023/05/24 06:18:48;;;;;;;20.90;8.68;;;;;;;18.08;72.48;99195.13;5021351;28;20078;-84
2023/05/24 06:21:14;;;;;;;10.70;8.60;;;;;;;18.46;72.24;99197.81;5020563;28;20018;-86
2023/05/24 06:23:40;;;;;;;19.33;7.75;;;;;;;18.80;70.46;99191.91;5034751;28;20018;-86
2023/05/24 06:26:08;;;;;;;15.73;7.78;;;;;;;18.51;68.95;99193.81;5033061;28;20399;-86
2023/05/24 06:28:35;;;;;;;10.88;7.57;;;;;;;19.03;69.58;99187.16;5020932;28;20189;-88
2023/05/24 06:31:00;;;;;;;10.60;8.13;;;;;;;19.43;67.99;99196.59;5027833;28;20024;-85
2023/05/24 06:33:26;;;;;;;9.77;7.53;;;;;;;19.33;68.01;99191.72;5027674;28;20033;-85
2023/05/24 06:35:52;;;;;;;16.63;6.97;;;;;;;19.49;67.17;99197.81;5045268;28;20025;-86
2023/05/24 06:38:17;;;;;;;14.25;7.65;;;;;;;19.38;65.97;99184.84;5016285;28;20028;-87
2023/05/24 06:40:43;;;;;;;13.93;7.68;;;;;;;19.58;64.83;99168.25;5028401;28;20021;-86
2023/05/24 06:43:11;;;;;;;15.23;7.30;;;;;;;19.54;64.91;99204.28;5030910;28;20634;-87
2023/05/24 06:45:36;;;;;;;11.23;6.05;;;;;;;19.88;63.33;99195.41;5029529;28;20429;-87
2023/05/24 06:48:02;;;;;;;9.77;7.15;;;;;;;20.18;62.94;99189.34;5027263;28;20037;-87
2023/05/24 06:50:28;;;;;;;12.27;5.95;;;;;;;20.29;59.48;99188.50;5025596;28;20580;-86
2023/05/24 06:52:53;;;;;;;7.68;5.95;;;;;;;20.78;58.21;99185.94;5026141;28;20057;-86
2023/05/24 06:55:19;;;;;;;8.55;5.97;;;;;;;20.53;56.90;99178.31;5020818;28;20053;-87
2023/05/24 06:57:45;;;;;;;12.30;5.65;;;;;;;20.98;54.06;99166.38;5047953;28;20045;-88
2023/05/24 07:00:11;;;;;;;11.43;6.82;;;;;;;21.33;56.05;99183.66;5018793;28;20523;-86
2023/05/24 07:02:40;;;;;;;8.02;5.25;;;;;;;21.73;54.86;99178.53;5025345;28;20025;-86
2023/05/24 07:05:11;;;;;;;7.20;5.07;;;;;;;21.92;50.44;99186.94;5030901;28;20497;-86
2023/05/24 07:07:42;;;;;;;7.85;5.35;;;;;;;22.04;51.76;99179.91;5034663;28;20040;-86
2023/05/24 07:10:09;;;;;;;7.03;5.47;;;;;;;21.92;49.85;99162.09;5016327;28;20025;-86
2023/05/24 07:12:38;;;;;;;11.93;5.10;;;;;;;22.23;50.34;99178.50;5017944;28;20025;-86
2023/05/24 07:15:05;;;;;;;17.33;5.65;;;;;;;22.05;51.71;99170.13;5034215;28;20029;-86
2023/05/24 07:17:31;;;;;;;9.25;6.00;;;;;;;22.47;50.84;99173.78;5050706;28;20413;-88
2023/05/24 07:19:57;;;;;;;6.68;5.57;;;;;;;21.77;50.21;99174.84;5023916;28;20033;-84
2023/05/24 07:22:24;;;;;;;9.05;5.47;;;;;;;22.32;50.53;99178.00;5025136;28;20025;-84
2023/05/24 07:24:50;;;;;;;12.20;5.30;;;;;;;22.39;49.78;99180.78;5022834;28;20021;-85
2023/05/24 07:27:15;;;;;;;9.55;5.07;;;;;;;22.36;50.97;99184.47;5030785;28;20029;-85
2023/05/24 07:29:41;;;;;;;9.35;4.53;;;;;;;22.26;48.26;99181.31;5027051;28;20052;-85
2023/05/24 07:32:07;;;;;;;7.05;4.90;;;;;;;22.74;50.31;99173.09;5015851;28;20030;-86
2023/05/24 07:34:33;;;;;;;9.93;5.07;;;;;;;22.79;48.26;99181.16;5018153;28;20121;-85
2023/05/24 07:37:00;;;;;;;8.10;5.78;;;;;;;22.65;48.80;99172.78;5024177;28;20048;-86
2023/05/24 07:39:26;;;;;;;9.02;5.05;;;;;;;23.06;46.50;99179.59;5033369;28;20016;-86
2023/05/24 07:41:53;;;;;;;6.22;5.25;;;;;;;23.49;46.84;99183.91;5031235;28;20027;-85
2023/05/24 07:44:18;;;;;;;11.50;4.57;;;;;;;23.76;44.76;99174.53;5028580;28;20501;-86
2023/05/24 07:46:44;;;;;;;6.30;5.00;;;;;;;23.67;45.86;99178.75;5026638;28;20025;-83
2023/05/24 07:49:10;;;;;;;7.25;5.55;;;;;;;23.54;46.66;99172.03;5032668;28;20451;-83
2023/05/24 07:51:35;;;;;;;19.35;5.90;;;;;;;23.93;46.08;99172.63;5033339;28;20027;-83
2023/05/24 07:54:01;;;;;;;8.25;4.88;;;;;;;23.26;47.17;99166.28;5032976;28;20028;-83
2023/05/24 07:56:26;;;;;;;5.70;4.47;;;;;;;23.61;45.18;99174.75;5033044;28;20059;-83
2023/05/24 07:58:55;;;;;;;9.95;5.45;;;;;;;23.92;42.92;99168.97;5032088;28;20025;-82
2023/05/24 08:01:22;;;;;;;9.97;4.60;;;;;;;23.44;43.87;99164.44;5019050;28;20570;-83
2023/05/24 08:03:48;;;;;;;13.88;6.78;;;;;;;23.32;45.88;99163.78;5050768;28;20059;-82
2023/05/24 08:06:13;;;;;;;20.30;7.50;;;;;;;23.62;45.45;99173.53;5032993;28;20485;-83
2023/05/24 08:08:39;;;;;;;21.52;9.80;;;;;;;23.95;44.06;99148.09;5023793;28;20020;-83
2023/05/24 08:11:06;;;;;;;114.13;29.88;;;;;;;23.97;48.04;99170.53;5028164;28;20037;-84
2023/05/24 08:13:32;;;;;;;21.95;7.32;;;;;;;24.34;43.88;99150.69;5027183;28;20017;-81
2023/05/24 08:15:58;;;;;;;36.08;11.05;;;;;;;24.46;42.08;99170.06;5029460;28;20087;-82
2023/05/24 08:18:23;;;;;;;59.35;24.20;;;;;;;25.21;46.95;99168.94;5030235;28;20485;-83
2023/05/24 08:20:49;;;;;;;57.75;27.67;;;;;;;25.73;43.48;99160.81;5024801;28;20033;-83
2023/05/24 08:23:15;;;;;;;113.43;31.75;;;;;;;25.89;48.46;99146.50;5014636;28;20025;-82
2023/05/24 08:25:40;;;;;;;18.85;7.80;;;;;;;26.01;40.30;99165.03;5031103;28;20023;-83
2023/05/24 08:28:06;;;;;;;13.60;6.57;;;;;;;25.09;40.53;99154.06;5030587;28;20516;-82
2023/05/24 08:30:32;;;;;;;11.65;6.55;;;;;;;25.30;39.95;99159.78;5030702;28;20021;-83
2023/05/24 08:32:57;;;;;;;33.42;11.63;;;;;;;25.73;41.20;99166.56;5032796;28;20040;-82
2023/05/24 08:35:23;;;;;;;16.10;7.20;;;;;;;26.04;41.11;99161.25;5047843;28;20025;-82
2023/05/24 08:37:49;;;;;;;40.90;12.90;;;;;;;26.23;40.70;99166.53;5030937;28;20083;-82
2023/05/24 08:40:15;;;;;;;15.23;6.95;;;;;;;26.74;38.16;99163.09;5024183;28;20029;-83
2023/05/24 08:42:40;;;;;;;313.50;121.97;;;;;;;27.15;36.72;99172.94;5024561;28;20678;-83
2023/05/24 08:45:14;;;;;;;118.28;35.20;;;;;;;27.66;43.59;99170.59;5024447;28;20041;-83
2023/05/24 08:47:41;;;;;;;156.13;45.35;;;;;;;28.08;47.46;99158.13;5032631;28;20027;-84
2023/05/24 08:50:07;;;;;;;34.38;12.50;;;;;;;28.28;37.08;99161.50;5050490;28;20432;-84
2023/05/24 08:52:33;;;;;;;27.52;8.50;;;;;;;27.89;38.29;99167.34;5019639;28;20039;-83
2023/05/24 08:54:59;;;;;;;6.07;4.05;;;;;;;28.14;34.93;99177.19;5022738;28;20037;-84
2023/05/24 08:57:30;;;;;;;8.50;5.10;;;;;;;28.44;35.19;99166.28;5029056;28;20084;-83
2023/05/24 08:59:55;;;;;;;8.98;4.00;;;;;;;28.68;35.78;99180.22;5037917;28;20056;-85
2023/05/24 09:02:21;;;;;;;11.57;4.38;;;;;;;28.65;36.10;99169.66;5032303;28;20498;-83
2023/05/24 09:04:53;;;;;;;13.27;5.25;;;;;;;28.91;36.97;99165.88;5030724;28;20025;-83
2023/05/24 09:07:22;;;;;;;8.35;4.20;;;;;;;28.78;32.93;99174.53;5035970;28;20025;-83
2023/05/24 09:10:05;;;;;;;28.33;6.38;;;;;;;28.19;32.37;99166.38;5023292;28;20141;-84
2023/05/24 09:12:32;;;;;;;9.13;3.72;;;;;;;28.75;31.56;99175.47;5031608;28;20452;-83
2023/05/24 09:14:58;;;;;;;7.43;3.80;;;;;;;28.26;33.27;99169.81;5020053;28;20036;-83
2023/05/24 09:17:24;;;;;;;8.75;4.47;;;;;;;28.57;34.28;99172.00;5038678;28;20025;-82
2023/05/24 09:19:51;;;;;;;7.47;3.40;;;;;;;28.38;28.43;99173.91;5022325;28;20097;-82
2023/05/24 09:22:22;;;;;;;6.50;3.90;;;;;;;28.67;30.16;99169.97;5036045;28;20033;-82
2023/05/24 09:24:59;;;;;;;5.68;4.13;;;;;;;28.45;30.12;99159.25;5038126;28;20521;-83
2023/05/24 09:27:25;;;;;;;5.57;3.60;;;;;;;28.29;28.76;99171.75;5018893;28;20060;-83
2023/05/24 09:29:52;;;;;;;6.07;3.60;;;;;;;28.24;28.67;99178.09;5035710;28;20071;-82
2023/05/24 09:32:22;;;;;;;3.45;2.70;;;;;;;28.56;28.88;99169.56;5028606;28;20060;-83
2023/05/24 09:34:47;;;;;;;3.97;3.53;;;;;;;27.65;30.09;99169.00;5027036;28;20033;-83
2023/05/24 09:37:18;;;;;;;7.30;3.47;;;;;;;28.64;29.03;99165.19;5015497;28;20090;-83
2023/05/24 09:39:46;;;;;;;4.40;3.63;;;;;;;28.88;30.08;99169.69;5025086;28;20030;-82
2023/05/24 09:42:23;;;;;;;7.03;3.90;;;;;;;28.85;29.58;99169.34;5024383;28;20030;-82
2023/05/24 09:45:11;;;;;;;5.47;4.05;;;;;;;29.08;29.38;99157.81;5036401;28;20064;-82
2023/05/24 09:47:39;;;;;;;7.82;3.38;;;;;;;29.15;30.61;99166.16;5046407;28;20033;-83
2023/05/24 09:50:12;;;;;;;7.85;4.63;;;;;;;28.93;28.25;99169.09;5033468;28;20033;-83
2023/05/24 09:52:38;;;;;;;4.80;3.55;;;;;;;28.99;28.01;99162.25;5020844;28;20033;-83
2023/05/24 09:55:17;;;;;;;4.68;4.25;;;;;;;29.12;29.15;99152.72;5028474;28;20032;-83
2023/05/24 09:57:44;;;;;;;6.88;4.07;;;;;;;28.55;30.34;99165.09;5029123;28;20487;-82
2023/05/24 10:00:16;;;;;;;3.85;3.50;;;;;;;28.14;30.34;99165.69;5025166;28;20551;-82
2023/05/24 10:02:45;;;;;;;5.07;3.33;;;;;;;28.23;31.25;99155.53;5026340;28;20123;-83
2023/05/24 10:05:11;;;;;;;8.48;3.92;;;;;;;28.79;28.52;99158.88;5031091;28;20033;-83
2023/05/24 10:07:37;;;;;;;6.07;3.85;;;;;;;29.33;28.74;99161.78;5031806;28;20060;-82
2023/05/24 10:10:04;;;;;;;6.20;4.15;;;;;;;29.00;28.92;99160.97;5030134;28;20109;-82
2023/05/24 10:12:30;;;;;;;5.32;3.67;;;;;;;28.89;29.32;99148.25;5031073;28;20040;-80
2023/05/24 10:14:56;;;;;;;5.50;3.70;;;;;;;29.23;28.49;99150.22;5042482;28;20037;-82
2023/05/24 10:17:23;;;;;;;6.30;3.50;;;;;;;29.28;28.91;99149.59;5029669;28;20494;-82
2023/05/24 10:19:50;;;;;;;9.63;4.00;;;;;;;29.37;27.59;99154.59;5048666;28;20171;-81
2023/05/24 10:22:16;;;;;;;7.45;3.92;;;;;;;29.62;27.20;99149.91;5040022;28;20035;-84
2023/05/24 10:24:55;;;;;;;8.10;4.40;;;;;;;29.46;27.51;99127.97;5026141;28;20037;-84
2023/05/24 10:27:23;;;;;;;141.27;13.77;;;;;;;30.04;27.33;99148.59;5050375;28;20032;-83
2023/05/24 10:30:10;;;;;;;5.20;3.72;;;;;;;29.74;26.50;99145.31;5025238;28;20125;-83
2023/05/24 10:32:38;;;;;;;6.68;3.63;;;;;;;29.35;27.64;99142.75;5029709;28;20112;-83
2023/05/24 10:35:05;;;;;;;5.85;2.97;;;;;;;29.58;25.40;99136.97;5024368;28;20579;-84
2023/05/24 10:37:31;;;;;;;5.50;3.45;;;;;;;29.82;25.95;99145.81;5032105;28;20047;-84
2023/05/24 10:39:58;;;;;;;9.48;3.28;;;;;;;29.82;26.28;99140.06;5026036;28;20402;-85
2023/05/24 10:42:23;;;;;;;4.45;3.58;;;;;;;29.51;27.11;99144.59;5026540;28;20034;-83
2023/05/24 10:44:49;;;;;;;6.35;3.28;;;;;;;29.03;27.02;99138.28;5021981;28;20483;-84
2023/05/24 10:47:16;;;;;;;4.15;3.55;;;;;;;29.03;27.09;99121.00;5022122;28;20501;-82
2023/05/24 10:49:57;;;;;;;8.13;3.38;;;;;;;29.66;25.47;99133.28;5039795;28;20036;-83
2023/05/24 10:52:34;;;;;;;4.28;3.50;;;;;;;29.95;28.44;99128.41;5030786;28;20021;-83
2023/05/24 10:55:10;;;;;;;3.70;3.40;;;;;;;30.07;28.01;99126.66;5023442;28;20407;-83
2023/05/24 10:57:37;;;;;;;16.90;5.43;;;;;;;28.93;27.80;99114.41;5017705;28;20057;-83
2023/05/24 11:00:24;;;;;;;4.22;3.83;;;;;;;28.25;28.27;99113.56;5014080;28;20033;-84
2023/05/24 11:02:50;;;;;;;10.15;4.35;;;;;;;28.61;28.49;99108.59;5032110;28;20036;-84
2023/05/24 11:05:17;;;;;;;8.20;3.97;;;;;;;29.52;29.03;99111.63;5020641;28;20117;-83
2023/05/24 11:07:43;;;;;;;9.45;4.55;;;;;;;29.83;27.42;99118.59;5027527;28;20029;-83
2023/05/24 11:10:30;;;;;;;6.47;3.38;;;;;;;30.44;26.08;99114.34;5019389;28;20039;-83
2023/05/24 11:13:07;;;;;;;6.80;3.72;;;;;;;30.16;27.45;99112.28;5025422;28;20021;-84
2023/05/24 11:15:33;;;;;;;6.10;3.13;;;;;;;29.93;26.65;99113.66;5032198;28;20501;-84
2023/05/24 11:18:08;;;;;;;5.65;4.07;;;;;;;30.11;26.51;99104.28;5030673;28;20261;-84
2023/05/24 11:20:37;;;;;;;7.47;3.95;;;;;;;29.96;26.50;99107.72;5028522;28;20025;-84
2023/05/24 11:23:05;;;;;;;6.28;3.40;;;;;;;29.90;26.91;99100.19;5030974;28;20033;-83
2023/05/24 11:25:32;;;;;;;4.13;3.70;;;;;;;28.92;26.99;99093.44;5030963;28;20065;-84
2023/05/24 11:28:00;;;;;;;6.70;4.55;;;;;;;29.10;28.23;99089.06;5028657;28;20041;-84